Time;durP1;ratioP1;P1;durP2;ratioP2;P2;SDS_P1;SDS_P2;PMS_P1;PMS_P2;Temp;Humidity;BMP_temperature;BMP_pressure;BME280_temperature;BME280_humidity;BME280_pressure;Samples;Min_cycle;Max_cycle;Signal;HPM_P1;HPM_P2
2021/04/06 00:02:16;;;;;;;11.63;7.08;;;;;;;6.27;97.73;100197.31;1786407;80;21167;-50
2021/04/06 00:04:50;;;;;;;17.73;7.70;;;;;;;6.28;97.85;100196.41;1786458;80;21043;-51
2021/04/06 00:07:20;;;;;;;16.25;6.83;;;;;;;6.29;97.82;100195.48;1786307;80;21508;-51
2021/04/06 00:09:55;;;;;;;14.75;6.80;;;;;;;6.33;97.69;100192.77;1786346;80;21072;-51
2021/04/06 00:12:23;;;;;;;13.55;7.28;;;;;;;6.31;97.66;100199.45;1731158;80;21060;-50
2021/04/06 00:14:51;;;;;;;12.60;6.17;;;;;;;6.32;97.65;100196.34;1786468;80;21072;-50
2021/04/06 00:17:21;;;;;;;13.95;6.35;;;;;;;6.30;97.83;100204.36;1784028;80;21193;-50
2021/04/06 00:19:48;;;;;;;12.35;6.22;;;;;;;6.28;97.92;100201.73;1734675;81;21202;-50
2021/04/06 00:22:17;;;;;;;16.27;6.92;;;;;;;6.27;98.09;100194.66;1740324;79;21215;-50
2021/04/06 00:24:48;;;;;;;13.28;6.40;;;;;;;6.26;98.40;100195.57;1788092;80;21413;-50
2021/04/06 00:27:22;;;;;;;10.15;6.10;;;;;;;6.26;99.18;100190.25;1764478;81;21168;-51
2021/04/06 00:29:58;;;;;;;13.62;5.83;;;;;;;6.28;100.00;100185.75;1788070;80;21070;-50
2021/04/06 00:32:26;;;;;;;15.78;6.62;;;;;;;6.27;100.00;100190.66;1764535;81;21172;-50
2021/04/06 00:34:59;;;;;;;16.85;6.65;;;;;;;6.31;100.00;100186.14;1788064;80;21543;-49
2021/04/06 00:37:27;;;;;;;12.82;5.80;;;;;;;6.33;100.00;100180.80;1764503;81;21112;-49
2021/04/06 00:40:06;;;;;;;15.18;6.03;;;;;;;6.35;100.00;100173.63;1775888;80;21091;-50
2021/04/06 00:42:36;;;;;;;12.78;6.00;;;;;;;6.36;100.00;100173.57;1764336;81;21165;-50
2021/04/06 00:45:17;;;;;;;18.10;5.67;;;;;;;6.36;100.00;100170.91;1775989;80;21107;-49
2021/04/06 00:47:44;;;;;;;17.12;5.87;;;;;;;6.39;100.00;100168.16;1764480;81;21207;-49
2021/04/06 00:50:16;;;;;;;14.45;5.92;;;;;;;6.41;100.00;100165.47;1795858;79;21069;-49
2021/04/06 00:52:45;;;;;;;10.78;5.03;;;;;;;6.43;100.00;100164.97;1759314;80;21119;-49
2021/04/06 00:55:17;;;;;;;12.18;5.05;;;;;;;6.45;100.00;100157.81;1764489;81;21149;-49
2021/04/06 00:57:45;;;;;;;19.25;5.33;;;;;;;6.47;100.00;100160.44;1788065;80;21145;-50
2021/04/06 01:00:20;;;;;;;13.10;5.17;;;;;;;6.48;100.00;100160.38;1764467;81;21359;-49
2021/04/06 01:03:13;;;;;;;14.73;5.55;;;;;;;6.49;100.00;100156.80;1775897;80;21139;-50
2021/04/06 01:06:05;;;;;;;10.65;4.72;;;;;;;6.50;100.00;100165.20;1764446;81;21145;-51
2021/04/06 01:08:38;;;;;;;18.25;5.45;;;;;;;6.50;100.00;100158.55;1788037;80;21067;-50
2021/04/06 01:11:06;;;;;;;18.40;4.92;;;;;;;6.50;100.00;100157.22;1764453;81;21139;-50
2021/04/06 01:13:36;;;;;;;13.22;4.67;;;;;;;6.51;100.00;100152.30;1788084;80;21561;-50
2021/04/06 01:16:05;;;;;;;10.28;4.78;;;;;;;6.52;100.00;100162.07;1764462;81;21496;-50
2021/04/06 01:18:34;;;;;;;11.60;4.47;;;;;;;6.52;100.00;100156.74;1767063;80;21517;-50
2021/04/06 01:21:09;;;;;;;15.43;5.10;;;;;;;6.53;100.00;100154.50;1733475;81;21074;-50
2021/04/06 01:23:37;;;;;;;15.72;5.05;;;;;;;6.55;100.00;100153.11;1810226;79;21146;-50
2021/04/06 01:26:10;;;;;;;16.30;4.65;;;;;;;6.57;100.00;100157.48;1810415;79;22263;-50
2021/04/06 01:28:40;;;;;;;14.73;4.75;;;;;;;6.58;100.00;100145.91;1764973;81;21524;-50
2021/04/06 01:31:08;;;;;;;17.07;4.22;;;;;;;6.62;100.00;100143.16;1810316;78;21110;-50
2021/04/06 01:33:36;;;;;;;13.40;4.62;;;;;;;6.64;100.00;100149.31;1810308;79;21154;-50
2021/04/06 01:36:08;;;;;;;11.75;3.92;;;;;;;6.65;100.00;100146.62;1765033;81;21208;-50
2021/04/06 01:38:40;;;;;;;11.63;3.80;;;;;;;6.66;100.00;100154.13;1810284;78;21186;-50
2021/04/06 01:41:06;;;;;;;13.88;4.28;;;;;;;6.66;100.00;100140.81;1810237;79;21131;-50
2021/04/06 01:43:36;;;;;;;11.65;4.30;;;;;;;6.66;100.00;100140.81;1763561;81;21075;-50
2021/04/06 01:46:51;;;;;;;10.20;3.62;;;;;;;6.65;100.00;100147.95;1756632;79;21059;-50
2021/04/06 01:48:35;;;;;;;10.58;3.40;;;;;;;6.63;100.00;100146.23;1781610;79;21202;-48
2021/04/06 01:51:03;;;;;;;13.68;3.52;;;;;;;6.59;100.00;100141.00;1807958;79;21761;-51
2021/04/06 01:53:30;;;;;;;10.32;3.58;;;;;;;6.57;100.00;100134.84;1807973;79;21047;-49
2021/04/06 01:56:02;;;;;;;8.13;3.15;;;;;;;6.56;100.00;100141.09;1760380;81;21137;-50
2021/04/06 01:58:30;;;;;;;7.62;3.33;;;;;;;6.56;100.00;100137.53;1808087;79;21099;-50
2021/04/06 02:03:45;;;;;;;12.33;3.40;;;;;;;6.53;100.00;100137.19;1760305;81;21372;-49
2021/04/06 02:06:13;;;;;;;12.05;3.02;;;;;;;6.52;100.00;100137.21;1808005;79;21071;-50
2021/04/06 02:08:53;;;;;;;7.37;2.85;;;;;;;6.52;100.00;100138.10;1760401;81;21118;-49
2021/04/06 02:11:24;;;;;;;9.63;3.58;;;;;;;6.50;100.00;100123.92;1808015;79;21482;-50
2021/04/06 02:13:53;;;;;;;9.93;2.75;;;;;;;6.49;100.00;100120.84;1760388;81;21486;-50
2021/04/06 02:16:20;;;;;;;10.88;2.62;;;;;;;6.45;100.00;100120.53;1807996;79;21130;-50
2021/04/06 02:18:53;;;;;;;9.60;3.20;;;;;;;6.43;100.00;100129.02;1735274;81;22366;-49
2021/04/06 02:21:26;;;;;;;7.22;2.65;;;;;;;6.41;100.00;100127.75;1758693;81;21075;-50
2021/04/06 02:23:50;;;;;;;7.45;2.70;;;;;;;6.42;100.00;100128.61;1727904;83;21097;-49
2021/04/06 02:26:17;;;;;;;9.10;3.22;;;;;;;6.43;100.00;100133.02;1758692;81;21146;-50
2021/04/06 02:28:45;;;;;;;12.20;3.52;;;;;;;6.44;100.00;100126.77;1666194;83;21372;-49
2021/04/06 02:31:13;;;;;;;8.65;2.90;;;;;;;6.44;100.00;100130.32;1758540;81;21075;-50
2021/04/06 02:33:41;;;;;;;8.60;2.80;;;;;;;6.47;100.00;100128.48;1728547;82;21495;-49
2021/04/06 02:36:10;;;;;;;11.08;2.75;;;;;;;6.47;100.00;100133.34;1700510;83;21573;-49
2021/04/06 02:38:42;;;;;;;8.85;2.90;;;;;;;6.49;100.00;100124.84;1728514;83;21134;-50
2021/04/06 02:41:14;;;;;;;9.58;3.17;;;;;;;6.49;100.00;100120.84;1758417;81;21279;-50
2021/04/06 02:43:53;;;;;;;12.37;2.92;;;;;;;6.49;100.00;100122.66;1729330;82;21185;-49
2021/04/06 02:46:25;;;;;;;10.25;3.05;;;;;;;6.49;100.00;100117.33;1776615;79;21057;-50
2021/04/06 02:48:58;;;;;;;7.62;2.58;;;;;;;6.49;100.00;100124.84;1733015;82;21085;-49
2021/04/06 02:51:25;;;;;;;8.63;2.80;;;;;;;6.47;100.00;100129.34;1776734;80;21597;-49
2021/04/06 02:53:53;;;;;;;13.50;3.25;;;;;;;6.45;100.00;100125.41;1732945;82;21144;-49
2021/04/06 02:56:36;;;;;;;14.10;3.00;;;;;;;6.42;100.00;100126.83;1776569;80;21075;-49
2021/04/06 02:59:18;;;;;;;9.53;3.27;;;;;;;6.40;100.00;100127.30;1733056;82;21432;-51
2021/04/06 03:01:47;;;;;;;6.20;2.87;;;;;;;6.39;100.00;100132.69;1776609;80;21206;-49
2021/04/06 03:04:26;;;;;;;11.80;3.10;;;;;;;6.37;100.00;100129.20;1776730;80;21060;-50
2021/04/06 03:06:57;;;;;;;8.68;3.10;;;;;;;6.33;100.00;100123.55;1776846;80;21193;-50
2021/04/06 03:09:26;;;;;;;9.33;2.77;;;;;;;6.28;100.00;100128.52;1776810;79;21463;-50
2021/04/06 03:11:55;;;;;;;10.55;3.02;;;;;;;6.24;100.00;100126.86;1776800;79;21047;-50
2021/04/06 03:14:24;;;;;;;9.03;2.83;;;;;;;6.20;100.00;100129.19;1733071;82;21102;-49
2021/04/06 03:16:53;;;;;;;9.38;3.10;;;;;;;6.18;100.00;100122.14;1776840;79;21467;-49
2021/04/06 03:19:30;;;;;;;10.23;3.55;;;;;;;6.15;100.00;100117.80;1765369;81;21480;-50
2021/04/06 03:21:59;;;;;;;15.28;3.20;;;;;;;6.13;100.00;100118.30;1821742;78;21136;-50
2021/04/06 03:24:29;;;;;;;8.35;2.87;;;;;;;6.14;100.00;100128.03;1821901;78;21117;-50
2021/04/06 03:27:02;;;;;;;13.53;3.17;;;;;;;6.13;100.00;100109.84;1821804;78;21136;-50
2021/04/06 03:29:30;;;;;;;12.23;3.15;;;;;;;6.14;100.00;100123.56;1821972;78;21204;-50
2021/04/06 03:31:59;;;;;;;6.55;2.70;;;;;;;6.14;100.00;100128.89;1821799;78;21396;-50
2021/04/06 03:34:32;;;;;;;13.53;2.95;;;;;;;6.16;100.00;100123.54;1821713;78;21124;-50
2021/04/06 03:37:08;;;;;;;10.98;2.83;;;;;;;6.18;100.00;100125.70;1821875;78;21481;-50
2021/04/06 03:39:36;;;;;;;17.42;3.47;;;;;;;6.19;100.00;100119.45;1821973;78;21132;-49
2021/04/06 03:42:05;;;;;;;12.65;3.42;;;;;;;6.20;100.00;100111.89;1821852;78;21465;-50
2021/04/06 03:44:32;;;;;;;10.75;3.58;;;;;;;6.24;100.00;100120.20;1825775;78;21366;-49
2021/04/06 03:47:04;;;;;;;14.43;3.45;;;;;;;6.28;100.00;100113.88;1831196;78;21159;-50
2021/04/06 03:49:32;;;;;;;12.13;3.10;;;;;;;6.34;100.00;100122.63;1831077;78;21108;-49
2021/04/06 03:52:07;;;;;;;16.35;3.20;;;;;;;6.38;100.00;100122.48;1831164;78;21058;-50
2021/04/06 03:54:49;;;;;;;11.18;2.92;;;;;;;6.45;100.00;100127.18;1804314;78;21041;-49
2021/04/06 03:57:37;;;;;;;11.43;2.98;;;;;;;6.55;100.00;100123.36;1831174;78;21382;-50
2021/04/06 04:00:08;;;;;;;9.23;2.95;;;;;;;6.62;100.00;100113.86;1831073;78;21160;-50
2021/04/06 04:02:36;;;;;;;10.25;2.75;;;;;;;6.68;100.00;100119.00;1831090;78;21171;-50
2021/04/06 04:05:05;;;;;;;10.58;2.85;;;;;;;6.72;100.00;100120.65;1831065;78;21049;-50
2021/04/06 04:07:36;;;;;;;14.07;3.75;;;;;;;6.74;100.00;100122.80;1831136;78;21029;-50
2021/04/06 04:10:07;;;;;;;14.53;3.08;;;;;;;6.80;100.00;100126.64;1831129;78;21184;-50
2021/04/06 04:12:35;;;;;;;8.18;2.80;;;;;;;6.86;100.00;100125.59;1831148;78;21543;-50
2021/04/06 04:15:06;;;;;;;11.65;3.10;;;;;;;6.90;100.00;100123.70;1831135;78;21108;-50
2021/04/06 04:17:34;;;;;;;12.90;2.65;;;;;;;6.94;100.00;100125.34;1830883;78;21070;-50
2021/04/06 04:20:10;;;;;;;19.67;3.27;;;;;;;7.00;100.00;100126.52;1774033;80;21065;-50
2021/04/06 04:22:38;;;;;;;11.33;3.37;;;;;;;7.05;100.00;100125.91;1831035;78;21537;-50
2021/04/06 04:25:08;;;;;;;9.00;2.70;;;;;;;7.12;100.00;100125.27;1773919;80;21184;-51
2021/04/06 04:27:38;;;;;;;15.13;3.72;;;;;;;7.15;100.00;100122.50;1831200;78;21189;-51
2021/04/06 04:30:07;;;;;;;13.22;3.08;;;;;;;7.19;100.00;100118.81;1774060;80;21633;-51
2021/04/06 04:32:36;;;;;;;13.58;3.05;;;;;;;7.27;100.00;100121.25;1830685;78;21165;-50
2021/04/06 04:35:06;;;;;;;10.88;3.20;;;;;;;7.34;100.00;100112.13;1774042;80;21203;-53
2021/04/06 04:37:34;;;;;;;15.85;3.15;;;;;;;7.41;100.00;100120.80;1830974;78;21073;-50
2021/04/06 04:40:04;;;;;;;14.85;2.60;;;;;;;7.47;100.00;100113.08;1773968;80;21066;-51
2021/04/06 04:42:35;;;;;;;12.47;2.50;;;;;;;7.52;100.00;100112.45;1831083;78;21034;-50
2021/04/06 04:45:06;;;;;;;20.10;3.22;;;;;;;7.56;100.00;100105.64;1820726;78;21063;-51
2021/04/06 04:47:33;;;;;;;13.55;3.30;;;;;;;7.60;100.00;100117.06;1763649;81;21471;-50
2021/04/06 04:50:01;;;;;;;12.07;2.85;;;;;;;7.64;100.00;100108.06;1810305;79;21135;-50
2021/04/06 04:52:29;;;;;;;20.57;2.92;;;;;;;7.69;100.00;100118.56;1810305;79;21118;-50
2021/04/06 04:54:57;;;;;;;13.32;2.92;;;;;;;7.77;100.00;100122.31;1810292;79;21102;-50
2021/04/06 04:57:25;;;;;;;10.55;2.67;;;;;;;7.84;100.00;100126.52;1765063;81;21106;-50
2021/04/06 04:59:52;;;;;;;10.23;2.30;;;;;;;7.91;100.00;100113.84;1810349;79;21421;-50
2021/04/06 05:02:20;;;;;;;9.93;2.50;;;;;;;8.00;100.00;100125.08;1810212;79;21119;-50
2021/04/06 05:04:47;;;;;;;13.00;3.08;;;;;;;8.10;100.00;100123.44;1764895;81;21133;-50
2021/04/06 05:07:15;;;;;;;11.53;2.77;;;;;;;8.20;99.69;100118.66;1810298;79;21141;-50
2021/04/06 05:09:43;;;;;;;12.98;2.80;;;;;;;8.24;98.81;100131.81;1764910;81;21098;-51
2021/04/06 05:12:11;;;;;;;14.58;2.83;;;;;;;8.29;98.05;100137.01;1810376;78;21400;-50
2021/04/06 05:14:39;;;;;;;14.43;3.17;;;;;;;8.31;97.45;100127.14;1764882;81;21145;-50
2021/04/06 05:17:07;;;;;;;11.35;3.00;;;;;;;8.31;97.09;100125.36;1807159;79;21103;-49
2021/04/06 05:19:36;;;;;;;10.32;2.92;;;;;;;8.35;96.69;100131.44;1732995;82;21158;-50
2021/04/06 05:22:04;;;;;;;10.18;2.33;;;;;;;8.38;96.38;100129.13;1776673;80;21083;-52
2021/04/06 05:24:32;;;;;;;11.18;2.40;;;;;;;8.44;96.08;100123.56;1733014;82;21402;-51
2021/04/06 05:26:59;;;;;;;12.95;2.50;;;;;;;8.51;95.74;100121.13;1776629;80;21137;-51
2021/04/06 05:29:27;;;;;;;14.63;2.77;;;;;;;8.58;95.19;100122.64;1732990;82;21162;-51
2021/04/06 05:31:55;;;;;;;7.55;2.65;;;;;;;8.67;94.66;100127.22;1776742;80;21044;-51
2021/04/06 05:34:23;;;;;;;12.05;2.80;;;;;;;8.71;94.10;100132.86;1733045;82;21087;-49
2021/04/06 05:36:50;;;;;;;12.70;2.42;;;;;;;8.81;93.68;100119.57;1776745;80;21452;-49
2021/04/06 05:39:18;;;;;;;12.70;2.67;;;;;;;8.91;93.00;100131.23;1732915;82;21149;-50
2021/04/06 05:41:48;;;;;;;9.23;2.22;;;;;;;8.98;92.48;100127.42;1776718;80;21162;-50
2021/04/06 05:44:16;;;;;;;13.30;2.67;;;;;;;9.09;91.62;100127.00;1732949;81;21262;-49
2021/04/06 05:46:49;;;;;;;15.55;3.08;;;;;;;9.17;91.07;100137.81;1776644;80;21123;-50
2021/04/06 05:49:24;;;;;;;15.35;3.22;;;;;;;9.24;90.51;100134.89;1776643;80;21408;-50
2021/04/06 05:51:53;;;;;;;8.18;2.27;;;;;;;9.28;89.81;100133.83;1776356;80;21120;-50
2021/04/06 05:54:21;;;;;;;8.50;2.08;;;;;;;9.29;89.35;100141.81;1702672;82;21502;-50
2021/04/06 05:56:49;;;;;;;10.38;2.33;;;;;;;9.31;89.10;100127.91;1776665;80;21123;-50
2021/04/06 05:59:17;;;;;;;12.28;2.40;;;;;;;9.34;88.80;100132.24;1732965;82;21134;-50
2021/04/06 06:01:46;;;;;;;12.98;2.40;;;;;;;9.40;88.52;100134.70;1776731;80;21772;-51
2021/04/06 06:04:16;;;;;;;10.03;2.67;;;;;;;9.46;87.98;100136.23;1732872;82;21205;-50
2021/04/06 06:06:45;;;;;;;11.63;2.17;;;;;;;9.54;87.56;100140.83;1776641;79;21083;-50
2021/04/06 06:09:35;;;;;;;10.58;2.30;;;;;;;9.70;87.06;100129.02;1776549;80;21071;-50
2021/04/06 06:12:07;;;;;;;7.58;2.30;;;;;;;9.90;85.86;100132.67;1732997;82;21086;-50
2021/04/06 06:14:43;;;;;;;18.20;2.40;;;;;;;10.19;84.55;100133.22;1776603;80;21371;-50
2021/04/06 06:17:27;;;;;;;10.35;2.85;;;;;;;10.46;83.06;100135.66;1761136;81;21217;-51
2021/04/06 06:19:59;;;;;;;13.73;2.87;;;;;;;10.53;81.75;100134.47;1810531;79;21098;-50
2021/04/06 06:22:31;;;;;;;10.13;2.58;;;;;;;10.43;81.34;100145.17;1810164;79;21417;-50
2021/04/06 06:25:07;;;;;;;7.97;2.15;;;;;;;10.30;81.64;100143.02;1810207;78;21102;-50
2021/04/06 06:27:42;;;;;;;11.30;2.10;;;;;;;10.23;81.87;100137.51;1764961;81;21705;-50
2021/04/06 06:30:35;;;;;;;8.93;2.00;;;;;;;10.20;82.12;100122.91;1810298;79;21126;-51
2021/04/06 06:33:24;;;;;;;12.30;2.45;;;;;;;10.22;82.15;100128.22;1810283;79;21052;-51
2021/04/06 06:36:06;;;;;;;8.08;1.95;;;;;;;10.25;81.82;100132.95;1810234;78;21479;-51
2021/04/06 06:38:39;;;;;;;11.78;2.17;;;;;;;10.25;81.54;100119.55;1779248;79;21098;-52
2021/04/06 06:41:15;;;;;;;13.43;2.47;;;;;;;10.25;81.47;100126.25;1810288;79;21546;-51
2021/04/06 06:43:49;;;;;;;10.32;2.22;;;;;;;10.20;81.54;100132.28;1810183;79;21074;-52
2021/04/06 06:46:31;;;;;;;13.00;2.22;;;;;;;10.17;81.73;100131.08;1732204;81;21157;-51
2021/04/06 06:49:04;;;;;;;13.13;2.45;;;;;;;10.13;81.85;100133.02;1805574;79;21169;-50
2021/04/06 06:51:35;;;;;;;10.45;2.27;;;;;;;10.14;81.98;100129.88;1764879;81;21066;-51
2021/04/06 06:54:06;;;;;;;11.55;2.25;;;;;;;10.16;81.86;100128.00;1810206;78;21362;-50
2021/04/06 06:56:38;;;;;;;17.87;2.62;;;;;;;10.20;81.59;100136.30;1764922;81;21093;-50
2021/04/06 06:59:11;;;;;;;8.78;1.65;;;;;;;10.26;81.23;100137.85;1810201;79;21130;-51
2021/04/06 07:01:38;;;;;;;15.45;2.30;;;;;;;10.28;80.94;100142.22;1810174;78;21150;-51
2021/04/06 07:04:12;;;;;;;13.93;2.30;;;;;;;10.29;80.66;100145.30;1764875;81;21189;-51
2021/04/06 07:06:44;;;;;;;13.00;2.90;;;;;;;10.31;80.42;100131.36;1810280;79;22288;-50
2021/04/06 07:09:25;;;;;;;9.15;2.10;;;;;;;10.34;80.20;100133.50;1810173;79;21066;-50
2021/04/06 07:11:59;;;;;;;14.33;2.35;;;;;;;10.34;79.93;100139.72;1807515;77;21685;-50
2021/04/06 07:14:28;;;;;;;7.40;2.33;;;;;;;10.31;79.94;100143.42;1803606;78;21116;-51
2021/04/06 07:16:58;;;;;;;8.88;1.92;;;;;;;10.34;79.94;100146.90;1790021;78;21155;-54
2021/04/06 07:19:26;;;;;;;12.85;1.90;;;;;;;10.36;79.94;100151.23;1821862;78;22675;-52
2021/04/06 07:21:56;;;;;;;7.62;2.20;;;;;;;10.36;79.87;100151.72;1821746;78;21056;-52
2021/04/06 07:24:31;;;;;;;10.05;2.08;;;;;;;10.37;79.84;100132.02;1814795;77;21141;-52
2021/04/06 07:27:11;;;;;;;13.15;2.45;;;;;;;10.39;79.57;100144.88;1806380;79;21102;-52
2021/04/06 07:29:41;;;;;;;19.20;2.62;;;;;;;10.38;79.60;100128.41;1785643;79;21609;-52
2021/04/06 07:32:14;;;;;;;8.53;2.02;;;;;;;10.38;79.55;100138.64;1765347;81;21427;-51
2021/04/06 07:34:43;;;;;;;6.05;1.80;;;;;;;10.43;79.27;100147.86;1792935;80;21073;-50
2021/04/06 07:37:12;;;;;;;12.07;1.90;;;;;;;10.46;79.08;100146.38;1761634;81;21078;-51
2021/04/06 07:39:40;;;;;;;12.05;1.90;;;;;;;10.51;78.69;100141.70;1761623;81;21145;-51
2021/04/06 07:42:09;;;;;;;13.00;2.00;;;;;;;10.54;78.38;100152.28;1761624;81;21113;-51
2021/04/06 07:44:38;;;;;;;7.65;1.82;;;;;;;10.57;78.13;100144.11;1764231;81;21374;-52
2021/04/06 07:47:05;;;;;;;10.43;2.08;;;;;;;10.58;78.07;100145.84;1822164;78;21207;-52
2021/04/06 07:49:38;;;;;;;8.40;2.05;;;;;;;10.58;77.85;100143.16;1802733;79;21479;-52
2021/04/06 07:52:16;;;;;;;6.67;1.70;;;;;;;10.58;77.96;100139.14;1802661;79;21146;-52
2021/04/06 07:54:48;;;;;;;9.60;1.72;;;;;;;10.58;78.14;100129.77;1801710;79;21139;-52
2021/04/06 07:57:15;;;;;;;11.48;1.70;;;;;;;10.64;77.84;100133.09;1802762;79;21355;-52
2021/04/06 07:59:49;;;;;;;7.65;1.65;;;;;;;10.69;77.67;100141.34;1802772;79;21139;-52
2021/04/06 08:02:22;;;;;;;9.58;1.67;;;;;;;10.73;77.48;100138.06;1802574;79;21091;-52
2021/04/06 08:04:58;;;;;;;;;;;;;;;10.78;77.17;100140.05;1804915;79;21170;-51
2021/04/06 08:07:32;;;;;;;;;;;;;;;10.78;76.91;100127.98;1830974;78;20252;-52
2021/04/06 08:10:27;;;;;;;7.83;1.80;;;;;;;10.78;76.62;100125.31;1802855;79;21205;-53
2021/04/06 08:12:55;;;;;;;8.50;1.82;;;;;;;10.75;76.48;100138.38;1828173;78;21054;-51
2021/04/06 08:15:22;;;;;;;13.22;2.47;;;;;;;10.74;76.08;100133.09;1746299;79;21096;-52
2021/04/06 08:17:54;;;;;;;11.85;2.17;;;;;;;10.72;75.72;100104.12;1746413;79;21141;-53
2021/04/06 08:20:36;;;;;;;12.15;1.92;;;;;;;10.69;75.33;100109.62;1816106;79;21138;-54
2021/04/06 08:23:11;;;;;;;5.78;1.50;;;;;;;10.65;75.36;100128.13;1770710;80;21379;-52
2021/04/06 08:25:45;;;;;;;4.97;1.60;;;;;;;10.62;75.61;100112.19;1815982;79;21004;-53
2021/04/06 08:28:30;;;;;;;8.20;1.70;;;;;;;10.63;75.81;100113.94;1816238;79;21055;-53
2021/04/06 08:31:23;;;;;;;9.95;2.15;;;;;;;10.63;75.83;100110.80;1770341;81;21145;-51
2021/04/06 08:33:52;;;;;;;8.65;2.00;;;;;;;10.64;76.20;100117.02;1816079;79;21076;-53
2021/04/06 08:36:27;;;;;;;14.15;2.50;;;;;;;10.66;76.24;100121.83;1816026;79;21374;-52
2021/04/06 08:38:56;;;;;;;7.70;2.00;;;;;;;10.66;76.29;100121.83;1816037;79;21178;-52
2021/04/06 08:41:33;;;;;;;8.68;2.00;;;;;;;10.70;76.50;100114.93;1770712;80;21588;-52
2021/04/06 08:44:05;;;;;;;10.60;1.98;;;;;;;10.76;76.08;100112.44;1815972;79;21046;-53
2021/04/06 08:46:40;;;;;;;14.55;2.47;;;;;;;10.79;76.05;100123.02;1816055;79;21042;-52
2021/04/06 08:49:23;;;;;;;10.55;1.70;;;;;;;10.83;75.68;100113.89;1762342;81;22266;-52
2021/04/06 08:51:59;;;;;;;7.28;1.57;;;;;;;10.83;75.47;100095.13;1814376;78;21302;-51
2021/04/06 08:54:34;;;;;;;6.30;1.62;;;;;;;10.80;75.31;100099.74;1771812;80;21202;-52
2021/04/06 08:57:04;;;;;;;7.58;1.50;;;;;;;10.78;75.49;100113.24;1730280;82;21497;-53
2021/04/06 08:59:39;;;;;;;8.10;1.60;;;;;;;10.78;75.51;100111.02;1760501;81;22279;-52
2021/04/06 09:02:13;;;;;;;9.75;1.37;;;;;;;10.77;75.54;100117.32;1728705;83;21214;-53
2021/04/06 09:04:47;;;;;;;6.83;1.45;;;;;;;10.78;75.56;100114.58;1728493;83;21060;-53
2021/04/06 09:07:29;;;;;;;5.30;1.55;;;;;;;10.80;75.19;100111.36;1760453;81;21198;-51
2021/04/06 09:10:05;;;;;;;10.32;1.85;;;;;;;10.81;74.84;100107.73;1760299;81;21170;-51
2021/04/06 09:12:34;;;;;;;8.23;1.52;;;;;;;10.79;74.71;100089.97;1765439;80;21132;-53
2021/04/06 09:15:05;;;;;;;6.80;1.87;;;;;;;10.74;74.63;100104.95;1791662;79;21364;-53
2021/04/06 09:17:34;;;;;;;8.18;1.67;;;;;;;10.71;74.87;100109.08;1782885;80;21072;-52
2021/04/06 09:20:14;;;;;;;8.03;1.70;;;;;;;10.69;74.95;100105.14;1728686;82;21494;-53
2021/04/06 09:22:50;;;;;;;9.35;1.90;;;;;;;10.67;74.96;100099.44;1758686;80;21127;-53
2021/04/06 09:25:22;;;;;;;6.33;1.27;;;;;;;10.66;75.08;100104.41;1728530;83;21150;-51
2021/04/06 09:27:54;;;;;;;9.10;1.47;;;;;;;10.61;74.78;100092.58;1758707;81;21360;-51
2021/04/06 09:30:32;;;;;;;7.45;1.87;;;;;;;10.55;74.90;100082.11;1728556;83;21162;-52
2021/04/06 09:33:05;;;;;;;8.68;1.50;;;;;;;10.51;74.51;100092.58;1758340;81;21103;-52
2021/04/06 09:35:33;;;;;;;16.40;1.72;;;;;;;10.48;74.47;100076.16;1728662;83;21071;-52
2021/04/06 09:38:02;;;;;;;14.07;1.57;;;;;;;10.49;73.82;100087.27;1758834;80;21050;-52
2021/04/06 09:40:33;;;;;;;6.83;1.57;;;;;;;10.48;73.39;100092.72;1728670;83;21661;-52
2021/04/06 09:43:03;;;;;;;5.78;1.32;;;;;;;10.48;73.39;100082.86;1758659;81;21102;-52
2021/04/06 09:45:32;;;;;;;4.85;1.25;;;;;;;10.49;72.64;100095.31;1741853;81;21090;-52
2021/04/06 09:48:00;;;;;;;10.35;1.70;;;;;;;10.48;72.82;100097.59;1763105;80;21143;-53
2021/04/06 09:50:28;;;;;;;12.33;1.50;;;;;;;10.48;72.95;100078.83;1789373;80;21112;-52
2021/04/06 09:53:01;;;;;;;6.08;1.47;;;;;;;10.51;72.62;100093.46;1807110;78;21381;-52
2021/04/06 09:55:32;;;;;;;9.20;1.30;;;;;;;10.50;72.72;100093.06;1779548;79;21078;-52
2021/04/06 09:58:02;;;;;;;9.43;1.65;;;;;;;10.44;72.60;100067.86;1763349;81;21125;-52
2021/04/06 10:00:32;;;;;;;4.78;1.35;;;;;;;10.39;72.97;100077.89;1794659;80;21129;-52
2021/04/06 10:03:17;;;;;;;5.58;1.05;;;;;;;10.32;73.12;100055.41;1806089;79;21554;-53
2021/04/06 10:05:46;;;;;;;12.78;1.37;;;;;;;10.27;73.38;100046.67;1763137;81;21184;-53
2021/04/06 10:08:16;;;;;;;6.12;1.62;;;;;;;10.22;73.72;100055.89;1794677;80;21130;-53
2021/04/06 10:10:47;;;;;;;10.05;1.80;;;;;;;10.17;74.08;100046.25;1771935;79;20913;-52
2021/04/06 10:13:17;;;;;;;4.80;1.32;;;;;;;10.15;74.32;100059.30;1763341;81;21600;-52
2021/04/06 10:15:44;;;;;;;9.15;1.30;;;;;;;10.11;74.50;100055.02;1794691;80;21042;-53
2021/04/06 10:18:15;;;;;;;4.58;1.27;;;;;;;10.04;74.95;100052.59;1814662;78;21098;-53
2021/04/06 10:20:47;;;;;;;6.25;1.37;;;;;;;10.02;75.28;100040.22;1822031;78;22396;-54
2021/04/06 10:23:33;;;;;;;9.75;1.65;;;;;;;9.98;75.58;100042.16;1764859;81;21162;-53
2021/04/06 10:26:01;;;;;;;6.60;1.85;;;;;;;9.93;76.03;100037.94;1810176;78;21154;-53
2021/04/06 10:28:31;;;;;;;6.78;1.45;;;;;;;9.90;76.54;100036.28;1748931;81;21174;-53
2021/04/06 10:31:02;;;;;;;4.80;1.10;;;;;;;9.88;76.78;100030.13;1821670;78;21185;-53
2021/04/06 10:33:38;;;;;;;5.80;1.22;;;;;;;9.85;76.86;100023.57;1797705;78;21076;-52
2021/04/06 10:36:17;;;;;;;4.72;1.50;;;;;;;9.82;76.98;100033.05;1789481;80;21159;-52
2021/04/06 10:38:46;;;;;;;8.30;1.47;;;;;;;9.80;77.34;100032.25;1819358;78;21178;-51
2021/04/06 10:41:17;;;;;;;5.97;1.20;;;;;;;9.78;77.51;100020.73;1816027;78;21076;-52
2021/04/06 10:43:48;;;;;;;10.58;1.65;;;;;;;9.77;77.53;100024.35;1788434;80;22269;-52
2021/04/06 10:46:25;;;;;;;7.75;1.40;;;;;;;9.74;77.56;100022.21;1789305;80;21200;-53
2021/04/06 10:49:05;;;;;;;6.37;1.30;;;;;;;9.69;77.71;100013.52;1793985;79;21476;-54
2021/04/06 10:51:34;;;;;;;5.15;1.22;;;;;;;9.66;77.81;100004.28;1798371;79;21045;-53
2021/04/06 10:54:11;;;;;;;6.40;1.42;;;;;;;9.66;77.87;100012.31;1798485;79;21179;-53
2021/04/06 10:56:50;;;;;;;8.43;1.40;;;;;;;9.63;78.33;100013.79;1798292;79;21540;-51
2021/04/06 10:59:30;;;;;;;9.68;1.70;;;;;;;9.63;78.91;100000.86;1798321;79;21131;-52
2021/04/06 11:02:00;;;;;;;6.00;1.42;;;;;;;9.64;79.14;100000.81;1798216;79;21217;-52
2021/04/06 11:04:29;;;;;;;9.53;1.50;;;;;;;9.68;79.23;99998.40;1798314;79;21124;-52
2021/04/06 11:07:04;;;;;;;8.10;1.47;;;;;;;9.68;79.17;99993.05;1798388;79;21466;-53
2021/04/06 11:09:38;;;;;;;6.80;1.52;;;;;;;9.65;79.21;99991.84;1798084;79;21418;-52
2021/04/06 11:12:08;;;;;;;8.25;1.37;;;;;;;9.66;79.43;100001.61;1798334;79;21183;-51
2021/04/06 11:14:36;;;;;;;5.92;1.75;;;;;;;9.69;79.37;99990.77;1798444;79;21471;-51
2021/04/06 11:17:06;;;;;;;8.38;1.40;;;;;;;9.68;79.38;99997.06;1800507;78;21064;-51
2021/04/06 11:19:40;;;;;;;11.30;1.95;;;;;;;9.69;79.23;99986.75;1831062;78;21152;-51
2021/04/06 11:22:11;;;;;;;6.72;1.30;;;;;;;9.69;79.20;99974.70;1831170;78;21540;-51
2021/04/06 11:24:40;;;;;;;6.83;1.10;;;;;;;9.71;79.22;99972.83;1831106;78;21586;-51
2021/04/06 11:27:09;;;;;;;8.53;1.60;;;;;;;9.70;79.28;99964.85;1831122;78;21088;-51
2021/04/06 11:29:38;;;;;;;16.95;1.65;;;;;;;9.65;79.39;99963.73;1831081;78;21152;-51
2021/04/06 11:32:10;;;;;;;8.75;1.85;;;;;;;9.60;79.80;99972.41;1831215;78;21009;-51
2021/04/06 11:34:37;;;;;;;8.10;1.50;;;;;;;9.57;80.12;99965.41;1831118;78;21643;-51
2021/04/06 11:37:06;;;;;;;5.33;1.50;;;;;;;9.59;80.05;99964.88;1831055;78;21112;-51
2021/04/06 11:39:39;;;;;;;14.75;1.40;;;;;;;9.60;80.18;99953.68;1831132;78;21092;-51
2021/04/06 11:42:09;;;;;;;7.78;1.15;;;;;;;9.57;80.12;99944.45;1831264;78;21093;-51
2021/04/06 11:44:38;;;;;;;5.80;1.32;;;;;;;9.53;80.33;99957.57;1831075;78;21112;-51
2021/04/06 11:47:06;;;;;;;8.35;1.42;;;;;;;9.48;80.73;99945.72;1831200;78;22091;-51
2021/04/06 11:49:34;;;;;;;11.93;1.37;;;;;;;9.50;81.06;99940.31;1831055;78;21069;-50